Time;durP1;ratioP1;P1;durP2;ratioP2;P2;SDS_P1;SDS_P2;PMS_P1;PMS_P2;Temp;Humidity;BMP_temperature;BMP_pressure;BME280_temperature;BME280_humidity;BME280_pressure;Samples;Min_cycle;Max_cycle;Signal;HPM_P1;HPM_P2
2022/07/20 00:00:24;;;;;;;;;;;;;;;;;;5024583;28;19921;-62
2022/07/20 00:02:50;;;;;;;;;;;;;;;;;;5024716;28;19964;-61
2022/07/20 00:05:16;;;;;;;;;;;;;;;;;;5024701;28;19928;-61
2022/07/20 00:07:42;;;;;;;;;;;;;;;;;;5024005;28;19964;-62
2022/07/20 00:12:53;;;;;;;;;;;;;;;;;;5006751;28;20008;-62
2022/07/20 00:15:19;;;;;;;;;;;;;;;;;;5024452;28;20059;-62
2022/07/20 00:17:45;;;;;;;;;;;;;;;;;;5024687;28;20575;-62
2022/07/20 00:20:11;;;;;;;;;;;;;;;;;;5024983;28;19917;-62
2022/07/20 00:22:37;;;;;;;;;;;;;;;;;;5027515;28;19928;-62
2022/07/20 00:25:03;;;;;;;;;;;;;;;;;;5028025;28;19917;-62
2022/07/20 00:27:29;;;;;;;;;;;;;;;;;;5028122;28;19921;-62
2022/07/20 00:29:55;;;;;;;;;;;;;;;;;;5028460;28;20082;-62
2022/07/20 00:32:21;;;;;;;;;;;;;;;;;;5028095;28;19917;-62
2022/07/20 00:34:47;;;;;;;;;;;;;;;;;;5028147;28;19921;-62
2022/07/20 00:37:13;;;;;;;;;;;;;;;;;;5027030;28;19925;-61
2022/07/20 00:39:39;;;;;;;;;;;;;;;;;;5027885;28;19948;-62
2022/07/20 00:42:05;;;;;;;;;;;;;;;;;;5028136;28;19921;-62
2022/07/20 00:44:31;;;;;;;;;;;;;;;;;;5027811;28;20862;-62
2022/07/20 00:46:57;;;;;;;;;;;;;;;;;;5027994;28;19920;-62
2022/07/20 00:49:23;;;;;;;;;;;;;;;;;;5027793;28;20465;-62
2022/07/20 00:51:48;;;;;;;;;;;;;;;;;;5027710;28;19928;-61
2022/07/20 00:54:14;;;;;;;;;;;;;;;;;;5009136;28;19925;-62
2022/07/20 00:56:40;;;;;;;;;;;;;;;;;;5028252;28;20007;-62
2022/07/20 00:59:06;;;;;;;;;;;;;;;;;;5027943;28;19927;-62
2022/07/20 01:01:32;;;;;;;;;;;;;;;;;;5027371;28;19921;-62
2022/07/20 01:03:58;;;;;;;;;;;;;;;;;;5027572;28;19921;-62
2022/07/20 01:06:24;;;;;;;;;;;;;;;;;;5027566;28;19944;-62
2022/07/20 01:08:50;;;;;;;;;;;;;;;;;;5026440;28;19921;-62
2022/07/20 01:11:16;;;;;;;;;;;;;;;;;;5027519;28;19928;-62
2022/07/20 01:13:42;;;;;;;;;;;;;;;;;;5027474;28;19921;-61
2022/07/20 01:16:08;;;;;;;;;;;;;;;;;;5027736;28;19928;-62
2022/07/20 01:18:35;;;;;;;;;;;;;;;;;;5027435;28;19964;-62
2022/07/20 01:21:01;;;;;;;;;;;;;;;;;;5027278;28;19932;-62
2022/07/20 01:23:27;;;;;;;;;;;;;;;;;;5025124;28;19928;-62
2022/07/20 01:25:53;;;;;;;;;;;;;;;;;;5027338;28;20423;-62
2022/07/20 01:28:19;;;;;;;;;;;;;;;;;;5027021;28;19917;-62
2022/07/20 01:30:45;;;;;;;;;;;;;;;;;;5027119;28;20066;-62
2022/07/20 01:33:11;;;;;;;;;;;;;;;;;;5027166;28;19917;-61
2022/07/20 01:35:37;;;;;;;;;;;;;;;;;;5027014;28;19939;-62
2022/07/20 01:38:03;;;;;;;;;;;;;;;;;;5025736;28;19928;-62
2022/07/20 01:40:29;;;;;;;;;;;;;;;;;;5026714;28;20385;-62
2022/07/20 01:42:55;;;;;;;;;;;;;;;;;;5026982;28;20633;-62
2022/07/20 01:45:21;;;;;;;;;;;;;;;;;;5026727;28;19920;-62
2022/07/20 01:47:47;;;;;;;;;;;;;;;;;;5000735;28;20398;-62
2022/07/20 01:50:13;;;;;;;;;;;;;;;;;;5006958;28;19968;-62
2022/07/20 01:52:39;;;;;;;;;;;;;;;;;;5005857;28;20000;-62
2022/07/20 01:55:05;;;;;;;;;;;;;;;;;;5006961;28;19988;-62
2022/07/20 01:57:31;;;;;;;;;;;;;;;;;;5006889;28;19925;-62
2022/07/20 01:59:57;;;;;;;;;;;;;;;;;;5006885;28;19921;-62
2022/07/20 02:02:23;;;;;;;;;;;;;;;;;;5006661;28;20000;-62
2022/07/20 02:04:49;;;;;;;;;;;;;;;;;;5006504;28;20275;-62
2022/07/20 02:07:15;;;;;;;;;;;;;;;;;;5005128;28;19968;-61
2022/07/20 02:09:41;;;;;;;;;;;;;;;;;;5006821;28;20395;-62
2022/07/20 02:12:07;;;;;;;;;;;;;;;;;;5006993;28;20012;-61
2022/07/20 02:14:33;;;;;;;;;;;;;;;;;;5006259;28;19925;-62
2022/07/20 02:16:59;;;;;;;;;;;;;;;;;;5006616;28;19921;-62
2022/07/20 02:19:25;;;;;;;;;;;;;;;;;;4988755;28;19925;-62
2022/07/20 02:21:51;;;;;;;;;;;;;;;;;;5004848;28;19941;-61
2022/07/20 02:24:17;;;;;;;;;;;;;;;;;;5006092;28;20020;-62
2022/07/20 02:26:43;;;;;;;;;;;;;;;;;;5006341;28;19925;-61
2022/07/20 02:29:09;;;;;;;;;;;;;;;;;;5006664;28;19928;-61
2022/07/20 02:31:35;;;;;;;;;;;;;;;;;;5006082;28;19929;-61
2022/07/20 02:34:01;;;;;;;;;;;;;;;;;;5006031;28;19926;-61
2022/07/20 02:36:27;;;;;;;;;;;;;;;;;;5005565;28;19975;-62
2022/07/20 02:38:53;;;;;;;;;;;;;;;;;;5004956;28;19922;-62
2022/07/20 02:41:19;;;;;;;;;;;;;;;;;;5005781;28;19913;-62
2022/07/20 02:43:44;;;;;;;;;;;;;;;;;;4988125;28;20290;-62
2022/07/20 02:46:11;;;;;;;;;;;;;;;;;;5006240;28;19922;-62
2022/07/20 02:48:38;;;;;;;;;;;;;;;;;;5006421;28;20697;-62
2022/07/20 02:51:04;;;;;;;;;;;;;;;;;;4987330;28;19921;-62
2022/07/20 02:53:30;;;;;;;;;;;;;;;;;;5005217;28;19921;-62
2022/07/20 02:55:56;;;;;;;;;;;;;;;;;;5005864;28;20371;-62
2022/07/20 02:58:22;;;;;;;;;;;;;;;;;;4987817;28;19956;-62
2022/07/20 03:00:48;;;;;;;;;;;;;;;;;;5005716;28;19965;-62
2022/07/20 03:03:14;;;;;;;;;;;;;;;;;;5005557;28;19921;-62
2022/07/20 03:05:40;;;;;;;;;;;;;;;;;;4987784;28;19922;-62
2022/07/20 03:08:06;;;;;;;;;;;;;;;;;;5005228;28;19928;-62
2022/07/20 03:10:32;;;;;;;;;;;;;;;;;;5005479;28;19925;-61
2022/07/20 03:12:58;;;;;;;;;;;;;;;;;;5005619;28;20000;-62
2022/07/20 03:15:24;;;;;;;;;;;;;;;;;;5004937;28;20383;-62
2022/07/20 03:17:50;;;;;;;;;;;;;;;;;;5005575;28;19921;-62
2022/07/20 03:20:16;;;;;;;;;;;;;;;;;;5004767;28;20441;-62
2022/07/20 03:22:42;;;;;;;;;;;;;;;;;;5004300;28;19979;-62
2022/07/20 03:25:08;;;;;;;;;;;;;;;;;;4988014;28;20454;-62
2022/07/20 03:27:34;;;;;;;;;;;;;;;;;;5005323;28;19922;-62
2022/07/20 03:30:00;;;;;;;;;;;;;;;;;;5005472;28;19924;-62
2022/07/20 03:32:26;;;;;;;;;;;;;;;;;;5004469;28;20367;-62
2022/07/20 03:34:52;;;;;;;;;;;;;;;;;;5004801;28;19922;-62
2022/07/20 03:37:18;;;;;;;;;;;;;;;;;;5004188;28;20395;-62
2022/07/20 03:39:44;;;;;;;;;;;;;;;;;;5005556;28;19998;-62
2022/07/20 03:42:10;;;;;;;;;;;;;;;;;;5005403;28;19988;-62
2022/07/20 03:44:36;;;;;;;;;;;;;;;;;;5005325;28;19921;-62
2022/07/20 03:47:02;;;;;;;;;;;;;;;;;;5005314;28;19921;-62
2022/07/20 03:49:28;;;;;;;;;;;;;;;;;;5004392;28;20027;-62
2022/07/20 03:51:54;;;;;;;;;;;;;;;;;;5004934;28;19921;-62
2022/07/20 03:54:20;;;;;;;;;;;;;;;;;;5005578;28;19937;-62
2022/07/20 03:56:46;;;;;;;;;;;;;;;;;;5008966;28;20020;-62
2022/07/20 03:59:12;;;;;;;;;;;;;;;;;;5008693;28;20391;-62
2022/07/20 04:01:38;;;;;;;;;;;;;;;;;;5008998;28;19961;-62
2022/07/20 04:04:04;;;;;;;;;;;;;;;;;;5007947;28;19929;-62
2022/07/20 04:06:30;;;;;;;;;;;;;;;;;;5007918;28;19975;-62
2022/07/20 04:08:56;;;;;;;;;;;;;;;;;;5008950;28;20024;-62
2022/07/20 04:11:22;;;;;;;;;;;;;;;;;;5008467;28;19948;-62
2022/07/20 04:13:48;;;;;;;;;;;;;;;;;;5008247;28;20528;-62
2022/07/20 04:16:14;;;;;;;;;;;;;;;;;;4990827;28;19925;-62
2022/07/20 04:18:40;;;;;;;;;;;;;;;;;;5008653;28;19932;-62
2022/07/20 04:21:06;;;;;;;;;;;;;;;;;;5009026;28;20330;-62
2022/07/20 04:23:32;;;;;;;;;;;;;;;;;;5007499;28;19925;-62
2022/07/20 04:25:59;;;;;;;;;;;;;;;;;;5008468;28;19921;-62
2022/07/20 04:28:25;;;;;;;;;;;;;;;;;;5008288;28;20012;-62
2022/07/20 04:30:51;;;;;;;;;;;;;;;;;;5007717;28;20021;-62
2022/07/20 04:33:18;;;;;;;;;;;;;;;;;;5007888;28;20020;-62
2022/07/20 04:35:44;;;;;;;;;;;;;;;;;;5008498;28;19965;-62
2022/07/20 04:38:13;;;;;;;;;;;;;;;;;;5008036;28;20347;-62
2022/07/20 04:40:39;;;;;;;;;;;;;;;;;;5008673;28;19921;-61
2022/07/20 04:43:05;;;;;;;;;;;;;;;;;;5008237;28;19917;-62
2022/07/20 04:45:31;;;;;;;;;;;;;;;;;;5007569;28;19925;-61
2022/07/20 04:47:57;;;;;;;;;;;;;;;;;;5007993;28;20279;-62
2022/07/20 04:50:23;;;;;;;;;;;;;;;;;;5007887;28;19983;-61
2022/07/20 04:52:49;;;;;;;;;;;;;;;;;;5007228;28;20433;-62
2022/07/20 04:55:15;;;;;;;;;;;;;;;;;;5006681;28;19929;-62
2022/07/20 04:57:41;;;;;;;;;;;;;;;;;;4998357;28;20413;-62
2022/07/20 05:00:07;;;;;;;;;;;;;;;;;;5005480;28;19979;-62
2022/07/20 05:02:33;;;;;;;;;;;;;;;;;;4994333;28;20279;-62
2022/07/20 05:04:59;;;;;;;;;;;;;;;;;;5004462;28;19994;-62
2022/07/20 05:07:25;;;;;;;;;;;;;;;;;;5004594;28;20650;-62
2022/07/20 05:09:51;;;;;;;;;;;;;;;;;;5007206;28;20468;-62
2022/07/20 05:12:17;;;;;;;;;;;;;;;;;;4976353;28;20021;-62
2022/07/20 05:14:43;;;;;;;;;;;;;;;;;;5005707;28;19925;-62
2022/07/20 05:17:09;;;;;;;;;;;;;;;;;;5007520;28;19964;-62
2022/07/20 05:19:35;;;;;;;;;;;;;;;;;;5005070;28;20290;-62
2022/07/20 05:22:01;;;;;;;;;;;;;;;;;;5006391;28;20570;-62
2022/07/20 05:24:27;;;;;;;;;;;;;;;;;;5006318;28;19976;-62
2022/07/20 05:26:53;;;;;;;;;;;;;;;;;;5007137;28;19930;-62
2022/07/20 05:29:19;;;;;;;;;;;;;;;;;;5005484;28;20677;-62
2022/07/20 05:31:45;;;;;;;;;;;;;;;;;;5005518;28;19975;-62
2022/07/20 05:34:11;;;;;;;;;;;;;;;;;;5006981;28;19929;-61
2022/07/20 05:36:37;;;;;;;;;;;;;;;;;;5005493;28;19921;-61
2022/07/20 05:39:03;;;;;;;;;;;;;;;;;;5006650;28;19925;-61
2022/07/20 05:41:29;;;;;;;;;;;;;;;;;;5005443;28;20445;-61
2022/07/20 05:43:55;;;;;;;;;;;;;;;;;;5006035;28;19925;-61
2022/07/20 05:46:21;;;;;;;;;;;;;;;;;;5005462;28;20303;-61
2022/07/20 05:48:47;;;;;;;;;;;;;;;;;;5005445;28;19960;-62
2022/07/20 05:51:13;;;;;;;;;;;;;;;;;;5005743;28;20456;-62
2022/07/20 05:53:39;;;;;;;;;;;;;;;;;;5005732;28;19921;-61
2022/07/20 05:56:05;;;;;;;;;;;;;;;;;;5004964;28;19933;-61
2022/07/20 05:58:31;;;;;;;;;;;;;;;;;;5003487;28;20522;-61
2022/07/20 06:00:57;;;;;;;;;;;;;;;;;;5004182;28;19925;-62
2022/07/20 06:03:23;;;;;;;;;;;;;;;;;;5004260;28;20264;-62
2022/07/20 06:05:49;;;;;;;;;;;;;;;;;;5004451;28;19921;-61
2022/07/20 06:08:15;;;;;;;;;;;;;;;;;;5004416;28;19929;-61
2022/07/20 06:10:41;;;;;;;;;;;;;;;;;;5006597;28;20411;-62
2022/07/20 06:13:07;;;;;;;;;;;;;;;;;;5011688;28;19926;-62
2022/07/20 06:15:33;;;;;;;;;;;;;;;;;;5016108;28;20389;-61
2022/07/20 06:18:01;;;;;;;;;;;;;;;;;;5012276;28;19926;-61
2022/07/20 06:20:27;;;;;;;;;;;;;;;;;;5014615;28;20027;-61
2022/07/20 06:22:53;;;;;;;;;;;;;;;;;;5013657;28;20011;-61
2022/07/20 06:25:19;;;;;;;;;;;;;;;;;;5004862;28;19925;-62
2022/07/20 06:27:45;;;;;;;;;;;;;;;;;;5016210;28;19969;-61
2022/07/20 06:30:11;;;;;;;;;;;;;;;;;;5011282;28;19969;-61
2022/07/20 06:32:38;;;;;;;;;;;;;;;;;;5006987;28;19968;-62
2022/07/20 06:35:03;;;;;;;;;;;;;;;;;;5009766;28;19925;-61
2022/07/20 06:37:29;;;;;;;;;;;;;;;;;;5013067;28;19987;-61
2022/07/20 06:40:02;;;;;;;;;;;;;;;;;;5107828;27;1957056;-61
2022/07/20 06:42:28;;;;;;;;;;;;;;;;;;5173095;27;20017;-60
2022/07/20 06:44:55;;;;;;;;;;;;;;;;;;5173917;27;20018;-60
2022/07/20 06:47:21;;;;;;;;;;;;;;;;;;5175460;27;19926;-62
2022/07/20 06:49:47;;;;;;;;;;;;;;;;;;5156949;27;19928;-62
2022/07/20 06:52:13;;;;;;;;;;;;;;;;;;5154822;27;19927;-62
2022/07/20 06:54:39;;;;;;;;;;;;;;;;;;5162575;27;20005;-62
2022/07/20 06:57:05;;;;;;;;;;;;;;;;;;5140866;27;19927;-62
2022/07/20 06:59:31;;;;;;;;;;;;;;;;;;5142276;27;19953;-63
2022/07/20 07:01:57;;;;;;;;;;;;;;;;;;5152089;27;20007;-63
2022/07/20 07:04:23;;;;;;;;;;;;;;;;;;5163328;27;20359;-63
2022/07/20 07:06:49;;;;;;;;;;;;;;;;;;5143123;27;19927;-62
2022/07/20 07:09:15;;;;;;;;;;;;;;;;;;5150410;27;20000;-62
2022/07/20 07:11:41;;;;;;;;;;;;;;;;;;5150907;27;20318;-62
2022/07/20 07:14:07;;;;;;;;;;;;;;;;;;5164987;27;20397;-63
2022/07/20 07:16:33;;;;;;;;;;;;;;;;;;5149372;27;19923;-63
2022/07/20 07:18:59;;;;;;;;;;;;;;;;;;5162615;27;20010;-63
2022/07/20 07:21:25;;;;;;;;;;;;;;;;;;5137730;27;19931;-63
2022/07/20 07:23:51;;;;;;;;;;;;;;;;;;5147951;27;19934;-63
2022/07/20 07:26:17;;;;;;;;;;;;;;;;;;5155194;27;19924;-63
2022/07/20 07:28:43;;;;;;;;;;;;;;;;;;5149009;27;19923;-63
2022/07/20 07:31:09;;;;;;;;;;;;;;;;;;5169498;27;19923;-63
2022/07/20 07:33:35;;;;;;;;;;;;;;;;;;5145654;27;19976;-63
2022/07/20 07:36:01;;;;;;;;;;;;;;;;;;5143236;27;20593;-63
2022/07/20 07:38:27;;;;;;;;;;;;;;;;;;5147851;27;19931;-63
2022/07/20 07:40:53;;;;;;;;;;;;;;;;;;5142328;27;19923;-63
2022/07/20 07:43:19;;;;;;;;;;;;;;;;;;5154093;27;19978;-64
2022/07/20 07:45:46;;;;;;;;;;;;;;;;;;5143733;27;19993;-64
2022/07/20 07:48:11;;;;;;;;;;;;;;;;;;5145179;27;19998;-63
2022/07/20 07:50:37;;;;;;;;;;;;;;;;;;5144358;27;20014;-63
2022/07/20 07:53:04;;;;;;;;;;;;;;;;;;5138376;27;19923;-64
2022/07/20 07:55:29;;;;;;;;;;;;;;;;;;5143869;27;19968;-65
2022/07/20 07:57:55;;;;;;;;;;;;;;;;;;5145611;27;20010;-64
2022/07/20 08:00:21;;;;;;;;;;;;;;;;;;5151494;27;20013;-64
2022/07/20 08:02:48;;;;;;;;;;;;;;;;;;5152178;27;20371;-65
2022/07/20 08:05:14;;;;;;;;;;;;;;;;;;5152837;27;19923;-65
2022/07/20 08:07:40;;;;;;;;;;;;;;;;;;5151223;27;19942;-65
2022/07/20 08:10:07;;;;;;;;;;;;;;;;;;5153429;27;19931;-64
2022/07/20 08:12:33;;;;;;;;;;;;;;;;;;5151478;27;19930;-65
2022/07/20 08:14:59;;;;;;;;;;;;;;;;;;5134977;27;19923;-65
2022/07/20 08:17:25;;;;;;;;;;;;;;;;;;5151028;27;20269;-64
2022/07/20 08:19:51;;;;;;;;;;;;;;;;;;5135282;27;19963;-64
2022/07/20 08:22:18;;;;;;;;;;;;;;;;;;5160534;27;19930;-64
2022/07/20 08:24:44;;;;;;;;;;;;;;;;;;5166594;27;19922;-64
2022/07/20 08:27:10;;;;;;;;;;;;;;;;;;5164383;27;19923;-64
2022/07/20 08:29:36;;;;;;;;;;;;;;;;;;5167052;27;19930;-63
2022/07/20 08:32:02;;;;;;;;;;;;;;;;;;5168411;27;19922;-63
2022/07/20 08:34:28;;;;;;;;;;;;;;;;;;5165212;27;19922;-63
2022/07/20 08:36:54;;;;;;;;;;;;;;;;;;5148501;27;19923;-64
2022/07/20 08:39:20;;;;;;;;;;;;;;;;;;5152673;27;19927;-64
2022/07/20 08:41:46;;;;;;;;;;;;;;;;;;5154657;27;19924;-64
2022/07/20 08:44:12;;;;;;;;;;;;;;;;;;5155264;27;19924;-62
2022/07/20 08:46:38;;;;;;;;;;;;;;;;;;5153330;27;19990;-62
2022/07/20 08:49:04;;;;;;;;;;;;;;;;;;5157313;27;20067;-63
2022/07/20 08:51:30;;;;;;;;;;;;;;;;;;5152071;27;20315;-63
2022/07/20 08:53:56;;;;;;;;;;;;;;;;;;5144547;27;20414;-63
2022/07/20 08:56:22;;;;;;;;;;;;;;;;;;5132113;27;20005;-62
2022/07/20 08:58:48;;;;;;;;;;;;;;;;;;5127526;27;20326;-63
2022/07/20 09:01:14;;;;;;;;;;;;;;;;;;5108333;28;19930;-63
2022/07/20 09:03:41;;;;;;;;;;;;;;;;;;5127313;27;19945;-62
2022/07/20 09:06:07;;;;;;;;;;;;;;;;;;5126890;27;19919;-62
2022/07/20 09:08:33;;;;;;;;;;;;;;;;;;5133747;27;19977;-63
2022/07/20 09:11:00;;;;;;;;;;;;;;;;;;5148668;27;19962;-63
2022/07/20 09:13:25;;;;;;;;;;;;;;;;;;5148367;27;20384;-63
2022/07/20 09:15:53;;;;;;;;;;;;;;;;;;5148434;27;19927;-63
2022/07/20 09:18:19;;;;;;;;;;;;;;;;;;5129655;27;19923;-63
2022/07/20 09:20:45;;;;;;;;;;;;;;;;;;5147391;27;19982;-63
2022/07/20 09:23:11;;;;;;;;;;;;;;;;;;5146443;27;19918;-63
2022/07/20 09:25:37;;;;;;;;;;;;;;;;;;5148908;27;19930;-62
2022/07/20 09:28:03;;;;;;;;;;;;;;;;;;5148457;27;19983;-62
2022/07/20 09:30:29;;;;;;;;;;;;;;;;;;5148213;27;19985;-62
2022/07/20 09:32:55;;;;;;;;;;;;;;;;;;5147980;27;20384;-62
2022/07/20 09:35:21;;;;;;;;;;;;;;;;;;5147968;27;20391;-62
2022/07/20 09:37:47;;;;;;;;;;;;;;;;;;5147225;27;20028;-63
2022/07/20 09:40:13;;;;;;;;;;;;;;;;;;5140669;27;20269;-63
2022/07/20 09:42:39;;;;;;;;;;;;;;;;;;5135011;27;19931;-63
2022/07/20 09:45:05;;;;;;;;;;;;;;;;;;5150819;27;19981;-62
2022/07/20 09:47:31;;;;;;;;;;;;;;;;;;5153715;27;20479;-61
2022/07/20 09:49:57;;;;;;;;;;;;;;;;;;5150780;27;19930;-61
2022/07/20 09:52:23;;;;;;;;;;;;;;;;;;5146676;27;20373;-64
2022/07/20 09:54:49;;;;;;;;;;;;;;;;;;5130643;27;19947;-64
2022/07/20 09:57:15;;;;;;;;;;;;;;;;;;5148379;27;19934;-64
2022/07/20 09:59:46;;;;;;;;;;;;;;;;;;5147680;27;19930;-64
2022/07/20 10:02:12;;;;;;;;;;;;;;;;;;5150559;27;19923;-63
2022/07/20 10:04:38;;;;;;;;;;;;;;;;;;5136725;27;19923;-64
2022/07/20 10:07:04;;;;;;;;;;;;;;;;;;5161401;27;19918;-64
2022/07/20 10:09:30;;;;;;;;;;;;;;;;;;5164776;27;19927;-63
2022/07/20 10:11:56;;;;;;;;;;;;;;;;;;5162876;27;20347;-63
2022/07/20 10:14:22;;;;;;;;;;;;;;;;;;5155303;27;19923;-64
2022/07/20 10:16:48;;;;;;;;;;;;;;;;;;5143782;27;19930;-64
2022/07/20 10:19:14;;;;;;;;;;;;;;;;;;5138075;27;19927;-63
2022/07/20 10:21:40;;;;;;;;;;;;;;;;;;5143855;27;19942;-64
2022/07/20 10:24:06;;;;;;;;;;;;;;;;;;5145808;27;19931;-63
2022/07/20 10:26:32;;;;;;;;;;;;;;;;;;5145082;27;19938;-64
2022/07/20 10:28:58;;;;;;;;;;;;;;;;;;5146643;27;20014;-63
2022/07/20 10:31:24;;;;;;;;;;;;;;;;;;5145054;27;20014;-63
2022/07/20 10:33:50;;;;;;;;;;;;;;;;;;5141689;27;20014;-63
2022/07/20 10:39:01;;;;;;;;;;;;;;;;;;5145115;27;19938;-64
2022/07/20 10:41:31;;;;;;;;;;;;;;;;;;5146986;27;19923;-64
2022/07/20 10:43:57;;;;;;;;;;;;;;;;;;5144192;27;19923;-63
2022/07/20 10:46:23;;;;;;;;;;;;;;;;;;5143528;27;20387;-63
2022/07/20 10:48:49;;;;;;;;;;;;;;;;;;5144475;27;19930;-64
2022/07/20 10:51:15;;;;;;;;;;;;;;;;;;5139715;27;20014;-64
2022/07/20 10:53:41;;;;;;;;;;;;;;;;;;5145648;27;20003;-63
2022/07/20 10:56:08;;;;;;;;;;;;;;;;;;5146491;27;19930;-64
2022/07/20 10:58:34;;;;;;;;;;;;;;;;;;5144709;27;20009;-64
2022/07/20 11:01:00;;;;;;;;;;;;;;;;;;5148820;27;19923;-64
2022/07/20 11:03:27;;;;;;;;;;;;;;;;;;5147897;27;19930;-64
2022/07/20 11:05:53;;;;;;;;;;;;;;;;;;5149197;27;19922;-64
2022/07/20 11:08:19;;;;;;;;;;;;;;;;;;5148013;27;19923;-64
2022/07/20 11:10:45;;;;;;;;;;;;;;;;;;5151387;27;19930;-64
2022/07/20 11:13:11;;;;;;;;;;;;;;;;;;5148495;27;19923;-64
2022/07/20 11:15:37;;;;;;;;;;;;;;;;;;5146540;27;20373;-65
2022/07/20 11:18:03;;;;;;;;;;;;;;;;;;5149269;27;19923;-64
2022/07/20 11:20:29;;;;;;;;;;;;;;;;;;5147863;27;19930;-64
2022/07/20 11:22:55;;;;;;;;;;;;;;;;;;5149441;27;19942;-64
2022/07/20 11:25:24;;;;;;;;;;;;;;;;;;5149363;27;20002;-64
2022/07/20 11:27:50;;;;;;;;;;;;;;;;;;5150956;27;19999;-65
2022/07/20 11:30:16;;;;;;;;;;;;;;;;;;5152248;27;19923;-64
2022/07/20 11:32:42;;;;;;;;;;;;;;;;;;5152012;27;20295;-65
2022/07/20 11:35:08;;;;;;;;;;;;;;;;;;5152931;27;19970;-64
2022/07/20 11:37:33;;;;;;;;;;;;;;;;;;5152834;27;20440;-64
2022/07/20 11:40:00;;;;;;;;;;;;;;;;;;5149413;27;20164;-64
2022/07/20 11:42:26;;;;;;;;;;;;;;;;;;5152518;27;20027;-64
2022/07/20 11:44:52;;;;;;;;;;;;;;;;;;5152251;27;20019;-64
2022/07/20 11:47:18;;;;;;;;;;;;;;;;;;5153221;27;19931;-64
2022/07/20 11:49:44;;;;;;;;;;;;;;;;;;5152933;27;19931;-64
2022/07/20 11:52:10;;;;;;;;;;;;;;;;;;5148667;27;20447;-64
2022/07/20 11:54:37;;;;;;;;;;;;;;;;;;5151722;27;19974;-64
2022/07/20 11:57:03;;;;;;;;;;;;;;;;;;5141356;27;19930;-64
2022/07/20 11:59:29;;;;;;;;;;;;;;;;;;5145955;27;19931;-65
2022/07/20 12:01:55;;;;;;;;;;;;;;;;;;5146913;27;19930;-64
2022/07/20 12:04:21;;;;;;;;;;;;;;;;;;5145682;27;19923;-64
2022/07/20 12:06:47;;;;;;;;;;;;;;;;;;5144938;27;20009;-65
2022/07/20 12:09:13;;;;;;;;;;;;;;;;;;5143538;27;20133;-64
2022/07/20 12:11:39;;;;;;;;;;;;;;;;;;5147898;27;19923;-64
2022/07/20 12:14:05;;;;;;;;;;;;;;;;;;5145594;27;19923;-65
2022/07/20 12:16:31;;;;;;;;;;;;;;;;;;5147068;27;19927;-64
2022/07/20 12:18:57;;;;;;;;;;;;;;;;;;5144373;27;19923;-64
2022/07/20 12:21:24;;;;;;;;;;;;;;;;;;5145262;27;19927;-65
2022/07/20 12:23:50;;;;;;;;;;;;;;;;;;5143560;27;20202;-65
2022/07/20 12:26:16;;;;;;;;;;;;;;;;;;5145414;27;19987;-64
2022/07/20 12:28:42;;;;;;;;;;;;;;;;;;5146814;27;20338;-64
2022/07/20 12:31:09;;;;;;;;;;;;;;;;;;5145395;27;19920;-65
2022/07/20 12:33:35;;;;;;;;;;;;;;;;;;5146645;27;19959;-64
2022/07/20 12:36:00;;;;;;;;;;;;;;;;;;5143618;27;20034;-65
2022/07/20 12:38:26;;;;;;;;;;;;;;;;;;5145237;27;19927;-64
2022/07/20 12:40:52;;;;;;;;;;;;;;;;;;5142897;27;19934;-64
2022/07/20 12:43:18;;;;;;;;;;;;;;;;;;5145066;27;19919;-64
2022/07/20 12:45:44;;;;;;;;;;;;;;;;;;5145941;27;20370;-65
2022/07/20 12:48:10;;;;;;;;;;;;;;;;;;5144769;27;19923;-63
2022/07/20 12:50:36;;;;;;;;;;;;;;;;;;5145215;27;20708;-64
2022/07/20 12:53:02;;;;;;;;;;;;;;;;;;5147030;27;19923;-64
2022/07/20 12:55:28;;;;;;;;;;;;;;;;;;5141469;27;20013;-64
2022/07/20 12:57:54;;;;;;;;;;;;;;;;;;5146030;27;20332;-65
2022/07/20 13:00:20;;;;;;;;;;;;;;;;;;5143881;27;19923;-65
2022/07/20 13:02:46;;;;;;;;;;;;;;;;;;5145557;27;20260;-65
2022/07/20 13:05:12;;;;;;;;;;;;;;;;;;5140986;27;20018;-64
2022/07/20 13:07:38;;;;;;;;;;;;;;;;;;5142664;27;20332;-65
2022/07/20 13:10:04;;;;;;;;;;;;;;;;;;5137747;27;19923;-65
2022/07/20 13:12:30;;;;;;;;;;;;;;;;;;5144012;27;19930;-65
2022/07/20 13:14:56;;;;;;;;;;;;;;;;;;5144860;27;20423;-65
2022/07/20 13:17:22;;;;;;;;;;;;;;;;;;5142583;27;19976;-65
2022/07/20 13:19:48;;;;;;;;;;;;;;;;;;5145854;27;19923;-64
2022/07/20 13:22:14;;;;;;;;;;;;;;;;;;5144961;27;20344;-64
2022/07/20 13:24:40;;;;;;;;;;;;;;;;;;5143966;27;19995;-64
2022/07/20 13:27:06;;;;;;;;;;;;;;;;;;5144022;27;20376;-65
2022/07/20 13:29:32;;;;;;;;;;;;;;;;;;5146721;27;19933;-65
2022/07/20 13:31:58;;;;;;;;;;;;;;;;;;5143441;27;19981;-65
2022/07/20 13:34:24;;;;;;;;;;;;;;;;;;5145440;27;19962;-65
2022/07/20 13:36:50;;;;;;;;;;;;;;;;;;5142963;27;20388;-65
2022/07/20 13:39:16;;;;;;;;;;;;;;;;;;5143435;27;19927;-65
2022/07/20 13:41:42;;;;;;;;;;;;;;;;;;5142934;27;21746;-65
2022/07/20 13:44:08;;;;;;;;;;;;;;;;;;5141749;27;19967;-65
2022/07/20 13:46:34;;;;;;;;;;;;;;;;;;5146572;27;19983;-65
2022/07/20 13:49:03;;;;;;;;;;;;;;;;;;5142183;27;20163;-65
2022/07/20 13:51:29;;;;;;;;;;;;;;;;;;5127086;27;19923;-65
2022/07/20 13:53:55;;;;;;;;;;;;;;;;;;5142171;27;20467;-65
2022/07/20 13:56:21;;;;;;;;;;;;;;;;;;5142155;27;20746;-64
2022/07/20 13:58:47;;;;;;;;;;;;;;;;;;5149670;27;20422;-65
2022/07/20 14:01:13;;;;;;;;;;;;;;;;;;5141448;27;20003;-64
2022/07/20 14:03:39;;;;;;;;;;;;;;;;;;5136415;27;20414;-65
2022/07/20 14:06:05;;;;;;;;;;;;;;;;;;5136661;27;20010;-64
2022/07/20 14:08:31;;;;;;;;;;;;;;;;;;5137516;27;20601;-63
2022/07/20 14:10:57;;;;;;;;;;;;;;;;;;5135748;27;19920;-63
2022/07/20 14:13:23;;;;;;;;;;;;;;;;;;5139865;27;19950;-62
2022/07/20 14:15:49;;;;;;;;;;;;;;;;;;5124389;27;20304;-63
2022/07/20 14:18:15;;;;;;;;;;;;;;;;;;5143885;27;19923;-63
2022/07/20 14:20:41;;;;;;;;;;;;;;;;;;5146078;27;19923;-64
2022/07/20 14:23:07;;;;;;;;;;;;;;;;;;5145814;27;19915;-63
2022/07/20 14:25:33;;;;;;;;;;;;;;;;;;5148561;27;19923;-63
2022/07/20 14:27:59;;;;;;;;;;;;;;;;;;5146301;27;20015;-63
2022/07/20 14:30:25;;;;;;;;;;;;;;;;;;5145025;27;19927;-63
2022/07/20 14:32:51;;;;;;;;;;;;;;;;;;5146766;27;20333;-63
2022/07/20 14:35:17;;;;;;;;;;;;;;;;;;5144886;27;19919;-63
2022/07/20 14:37:43;;;;;;;;;;;;;;;;;;5147545;27;19927;-62
2022/07/20 14:40:09;;;;;;;;;;;;;;;;;;5145471;27;20404;-64
2022/07/20 14:42:35;;;;;;;;;;;;;;;;;;5148044;27;20402;-63
2022/07/20 14:45:01;;;;;;;;;;;;;;;;;;5146085;27;19942;-63
2022/07/20 14:47:27;;;;;;;;;;;;;;;;;;5144886;27;19934;-63
2022/07/20 14:49:53;;;;;;;;;;;;;;;;;;5146027;27;19931;-63
2022/07/20 14:52:19;;;;;;;;;;;;;;;;;;5145877;27;20287;-63
2022/07/20 14:54:45;;;;;;;;;;;;;;;;;;5145535;27;19931;-63
2022/07/20 14:57:11;;;;;;;;;;;;;;;;;;5143042;27;19930;-63
2022/07/20 14:59:37;;;;;;;;;;;;;;;;;;5135373;27;19966;-64
2022/07/20 15:02:03;;;;;;;;;;;;;;;;;;5143400;27;19987;-64
2022/07/20 15:04:29;;;;;;;;;;;;;;;;;;5146758;27;20336;-63
2022/07/20 15:06:55;;;;;;;;;;;;;;;;;;5144579;27;19927;-63
2022/07/20 15:09:21;;;;;;;;;;;;;;;;;;5140427;27;19938;-63
2022/07/20 15:11:47;;;;;;;;;;;;;;;;;;5137613;27;20451;-63
2022/07/20 15:14:13;;;;;;;;;;;;;;;;;;5141999;27;19941;-63
2022/07/20 15:16:39;;;;;;;;;;;;;;;;;;5143081;27;19927;-64
2022/07/20 15:19:05;;;;;;;;;;;;;;;;;;5146857;27;19927;-63
2022/07/20 15:21:31;;;;;;;;;;;;;;;;;;5147494;27;20298;-64
2022/07/20 15:23:57;;;;;;;;;;;;;;;;;;5145043;27;20354;-64
2022/07/20 15:26:23;;;;;;;;;;;;;;;;;;5143405;27;19989;-64
2022/07/20 15:28:49;;;;;;;;;;;;;;;;;;5141569;27;20430;-64
2022/07/20 15:31:15;;;;;;;;;;;;;;;;;;5137969;27;19978;-65
2022/07/20 15:33:41;;;;;;;;;;;;;;;;;;5149665;27;20228;-63
2022/07/20 15:36:08;;;;;;;;;;;;;;;;;;5139157;27;20624;-64
2022/07/20 15:38:34;;;;;;;;;;;;;;;;;;5154572;27;20616;-64
2022/07/20 15:41:00;;;;;;;;;;;;;;;;;;5137113;27;19962;-65
2022/07/20 15:43:27;;;;;;;;;;;;;;;;;;5158914;27;20383;-65
2022/07/20 15:45:53;;;;;;;;;;;;;;;;;;5137593;27;19927;-64
2022/07/20 15:48:19;;;;;;;;;;;;;;;;;;5142087;27;19924;-64
2022/07/20 15:50:45;;;;;;;;;;;;;;;;;;5155009;27;19927;-64
2022/07/20 15:53:12;;;;;;;;;;;;;;;;;;5164134;27;20021;-63
2022/07/20 15:55:38;;;;;;;;;;;;;;;;;;5133578;27;19927;-65
2022/07/20 15:58:04;;;;;;;;;;;;;;;;;;5129832;27;19942;-64
2022/07/20 16:00:30;;;;;;;;;;;;;;;;;;5127169;27;19974;-64
2022/07/20 16:02:56;;;;;;;;;;;;;;;;;;5127083;27;19992;-61
2022/07/20 16:05:24;;;;;;;;;;;;;;;;;;5146883;27;19927;-66
2022/07/20 16:07:50;;;;;;;;;;;;;;;;;;5149744;27;21294;-66
2022/07/20 16:10:16;;;;;;;;;;;;;;;;;;5145876;27;19931;-63
2022/07/20 16:12:42;;;;;;;;;;;;;;;;;;5141992;27;19935;-66
2022/07/20 16:15:08;;;;;;;;;;;;;;;;;;5141059;27;20468;-65
2022/07/20 16:17:34;;;;;;;;;;;;;;;;;;5142577;27;19933;-64
2022/07/20 16:20:00;;;;;;;;;;;;;;;;;;5141137;27;19938;-65
2022/07/20 16:22:26;;;;;;;;;;;;;;;;;;5142463;27;19923;-65
2022/07/20 16:24:53;;;;;;;;;;;;;;;;;;5142222;27;19931;-65
2022/07/20 16:27:19;;;;;;;;;;;;;;;;;;5147063;27;19926;-65
2022/07/20 16:29:45;;;;;;;;;;;;;;;;;;5138987;27;20742;-65
2022/07/20 16:32:11;;;;;;;;;;;;;;;;;;5146025;27;20369;-64
2022/07/20 16:34:37;;;;;;;;;;;;;;;;;;5147481;27;19952;-66
2022/07/20 16:37:03;;;;;;;;;;;;;;;;;;5143543;27;19926;-65
2022/07/20 16:39:29;;;;;;;;;;;;;;;;;;5145425;27;19931;-65
2022/07/20 16:41:55;;;;;;;;;;;;;;;;;;5145591;27;20026;-65